Time;durP1;ratioP1;P1;durP2;ratioP2;P2;SDS_P1;SDS_P2;PMS_P1;PMS_P2;Temp;Humidity;BMP_temperature;BMP_pressure;BME280_temperature;BME280_humidity;BME280_pressure;Samples;Min_cycle;Max_cycle;Signal;HPM_P1;HPM_P2
2023/07/05 00:00:45;;;;;;;5.43;2.13;;;15.80;99.90;;;;;;5001107;28;20034;-80
2023/07/05 00:03:11;;;;;;;2.72;1.60;;;15.80;99.90;;;;;;5003925;28;20065;-80
2023/07/05 00:05:38;;;;;;;4.82;2.53;;;15.80;99.90;;;;;;5008493;28;20040;-81
2023/07/05 00:08:04;;;;;;;4.60;2.60;;;15.90;99.90;;;;;;5027594;28;20033;-81
2023/07/05 00:10:30;;;;;;;5.75;3.03;;;15.90;99.90;;;;;;5018003;28;20085;-82
2023/07/05 00:12:55;;;;;;;4.18;2.25;;;15.90;99.90;;;;;;5004325;28;20030;-80
2023/07/05 00:15:21;;;;;;;7.78;3.17;;;15.90;99.90;;;;;;5005347;28;20306;-82
2023/07/05 00:17:47;;;;;;;5.82;2.67;;;15.90;99.90;;;;;;5021250;28;20399;-82
2023/07/05 00:20:13;;;;;;;3.20;2.00;;;15.90;99.90;;;;;;5006268;28;20045;-81
2023/07/05 00:22:39;;;;;;;5.85;2.83;;;15.80;99.90;;;;;;5024194;28;20032;-81
2023/07/05 00:25:05;;;;;;;4.80;1.95;;;15.90;99.90;;;;;;5022029;28;20037;-81
2023/07/05 00:27:31;;;;;;;4.22;2.40;;;15.90;99.90;;;;;;5009185;28;20037;-81
2023/07/05 00:29:56;;;;;;;4.85;2.80;;;15.80;99.90;;;;;;5009544;28;20095;-79
2023/07/05 00:32:22;;;;;;;3.67;1.63;;;15.80;99.90;;;;;;5028824;28;20041;-80
2023/07/05 00:34:49;;;;;;;4.72;1.73;;;15.90;99.90;;;;;;5017500;28;20033;-81
2023/07/05 00:37:14;;;;;;;3.63;1.60;;;15.80;99.90;;;;;;5006125;28;20041;-81
2023/07/05 00:39:40;;;;;;;4.20;1.13;;;15.90;99.90;;;;;;5020746;28;20022;-79
2023/07/05 00:42:06;;;;;;;3.10;1.40;;;15.80;99.90;;;;;;4996999;28;20037;-80
2023/07/05 00:44:32;;;;;;;3.15;1.38;;;15.80;99.90;;;;;;5007914;28;20021;-79
2023/07/05 00:47:14;;;;;;;3.13;1.13;;;15.90;99.90;;;;;;5004530;28;20119;-80
2023/07/05 00:49:40;;;;;;;3.50;1.48;;;15.80;99.90;;;;;;5012717;28;20113;-81
2023/07/05 00:52:11;;;;;;;2.60;1.00;;;15.90;99.90;;;;;;5018436;28;20136;-82
2023/07/05 00:54:44;;;;;;;1.98;0.80;;;15.90;99.90;;;;;;5007725;28;20025;-80
2023/07/05 00:57:27;;;;;;;2.83;1.08;;;15.80;99.90;;;;;;5025621;28;20037;-81
2023/07/05 00:59:58;;;;;;;2.75;0.80;;;15.90;99.90;;;;;;5036316;28;20061;-79
2023/07/05 01:02:24;;;;;;;1.73;0.93;;;15.80;99.90;;;;;;5022801;28;20052;-80
2023/07/05 01:04:50;;;;;;;2.25;1.10;;;15.80;99.90;;;;;;5025266;28;20033;-80
2023/07/05 01:07:16;;;;;;;3.35;1.70;;;15.80;99.90;;;;;;5028793;28;20065;-81
2023/07/05 01:09:45;;;;;;;2.83;1.75;;;15.80;99.90;;;;;;5028559;28;20064;-80
2023/07/05 01:12:25;;;;;;;4.30;2.10;;;15.80;99.90;;;;;;5018238;28;20030;-81
2023/07/05 01:15:08;;;;;;;3.97;2.05;;;15.80;99.90;;;;;;5009767;28;20497;-79
2023/07/05 01:17:34;;;;;;;3.35;1.50;;;15.80;99.90;;;;;;5023181;28;20025;-80
2023/07/05 01:20:11;;;;;;;4.55;1.58;;;15.70;99.90;;;;;;5009205;28;20540;-82
2023/07/05 01:23:16;;;;;;;3.53;1.23;;;15.80;99.90;;;;;;5035473;28;20053;-81
2023/07/05 01:26:10;;;;;;;4.15;1.42;;;15.80;99.90;;;;;;5008545;28;20026;-81
2023/07/05 01:28:37;;;;;;;4.70;1.65;;;15.80;99.90;;;;;;5019571;28;20600;-80
2023/07/05 01:31:42;;;;;;;5.68;2.00;;;15.80;99.90;;;;;;5023990;28;20033;-81
2023/07/05 01:34:11;;;;;;;3.08;1.58;;;15.70;99.90;;;;;;5024572;28;20486;-80
2023/07/05 01:36:37;;;;;;;4.70;2.05;;;15.70;99.90;;;;;;5022747;28;20064;-81
2023/07/05 01:39:05;;;;;;;4.75;1.90;;;15.70;99.90;;;;;;5024815;28;20030;-80
2023/07/05 01:41:30;;;;;;;2.28;1.35;;;15.70;99.90;;;;;;5036815;28;20517;-81
2023/07/05 01:43:56;;;;;;;3.85;1.30;;;15.80;99.90;;;;;;5029940;28;20067;-79
2023/07/05 01:46:45;;;;;;;2.38;1.48;;;15.80;99.90;;;;;;5023388;28;20433;-80
2023/07/05 01:49:54;;;;;;;4.43;1.53;;;15.80;99.90;;;;;;5018506;28;21957;-79
2023/07/05 01:52:44;;;;;;;5.43;1.77;;;15.80;99.90;;;;;;4930605;29;20299;-81
2023/07/05 01:55:22;;;;;;;6.57;1.55;;;15.80;99.90;;;;;;4947982;29;20047;-80
2023/07/05 01:58:00;;;;;;;4.07;2.10;;;15.80;99.90;;;;;;4949754;29;20067;-80
2023/07/05 02:00:28;;;;;;;9.93;2.38;;;15.90;99.90;;;;;;4916918;29;20555;-79
2023/07/05 02:03:01;;;;;;;3.53;1.60;;;15.90;99.90;;;;;;4932055;29;20134;-81
2023/07/05 02:05:29;;;;;;;2.80;1.33;;;15.90;99.90;;;;;;4918002;29;20392;-81
2023/07/05 02:07:56;;;;;;;5.65;2.05;;;15.90;99.90;;;;;;4931449;29;20054;-80
2023/07/05 02:10:23;;;;;;;1.90;1.05;;;15.90;99.90;;;;;;4916556;29;20059;-80
2023/07/05 02:12:52;;;;;;;3.47;2.38;;;15.90;99.90;;;;;;4947334;29;20050;-81
2023/07/05 02:15:18;;;;;;;3.80;1.10;;;16.00;99.90;;;;;;4948747;29;20058;-80
2023/07/05 02:17:44;;;;;;;4.03;1.17;;;16.00;99.90;;;;;;4949941;29;20416;-79
2023/07/05 02:20:10;;;;;;;3.08;1.10;;;16.00;99.90;;;;;;4915894;29;20033;-80
2023/07/05 02:22:36;;;;;;;3.72;1.20;;;16.10;99.90;;;;;;4915876;29;20118;-79
2023/07/05 02:25:02;;;;;;;2.67;1.15;;;16.10;99.90;;;;;;4935208;28;20028;-79
2023/07/05 02:27:28;;;;;;;4.22;0.90;;;16.20;99.90;;;;;;5023241;28;20040;-80
2023/07/05 02:29:55;;;;;;;3.85;1.15;;;16.20;99.90;;;;;;5010382;28;20030;-80
2023/07/05 02:32:21;;;;;;;4.22;1.17;;;16.20;99.90;;;;;;5022100;28;20025;-79
2023/07/05 02:34:50;;;;;;;2.60;0.82;;;16.20;99.90;;;;;;5008101;28;20026;-79
2023/07/05 02:37:16;;;;;;;3.72;1.10;;;16.20;99.90;;;;;;5026631;28;20057;-80
2023/07/05 02:39:42;;;;;;;4.70;0.93;;;16.30;99.90;;;;;;5009414;28;20022;-79
2023/07/05 02:42:08;;;;;;;2.40;0.70;;;16.20;99.90;;;;;;5006053;28;20496;-79
2023/07/05 02:44:34;;;;;;;2.55;0.80;;;16.20;99.90;;;;;;5011389;28;20026;-79
2023/07/05 02:47:00;;;;;;;2.22;0.70;;;16.20;99.90;;;;;;5009927;28;20052;-80
2023/07/05 02:49:26;;;;;;;2.38;0.63;;;16.20;99.90;;;;;;5024683;28;20017;-81
2023/07/05 02:51:53;;;;;;;3.05;0.50;;;16.20;99.90;;;;;;5026116;28;20045;-81
2023/07/05 02:54:19;;;;;;;1.63;0.70;;;16.10;99.90;;;;;;5001528;28;20022;-80
2023/07/05 02:56:45;;;;;;;2.10;0.60;;;16.10;99.90;;;;;;5026730;28;20063;-80
2023/07/05 02:59:10;;;;;;;1.88;0.70;;;16.10;99.90;;;;;;5022657;28;20453;-80
2023/07/05 03:01:36;;;;;;;4.40;0.80;;;16.10;99.90;;;;;;5003444;28;20096;-79
2023/07/05 03:04:02;;;;;;;3.40;0.80;;;16.10;99.90;;;;;;5023570;28;20482;-81
2023/07/05 03:06:28;;;;;;;2.20;0.50;;;16.00;99.90;;;;;;5021121;28;20456;-81
2023/07/05 03:08:54;;;;;;;3.88;0.60;;;16.00;99.90;;;;;;5022769;28;20407;-81
2023/07/05 03:11:20;;;;;;;1.98;0.95;;;16.00;99.90;;;;;;5022461;28;20541;-81
2023/07/05 03:13:47;;;;;;;4.90;0.50;;;15.80;99.90;;;;;;5006112;28;20430;-81
2023/07/05 03:16:12;;;;;;;2.42;0.60;;;15.90;99.90;;;;;;5007465;28;20078;-81
2023/07/05 03:18:38;;;;;;;1.27;0.50;;;15.80;99.90;;;;;;5011415;28;20087;-81
2023/07/05 03:21:04;;;;;;;1.98;0.60;;;15.70;99.90;;;;;;5007032;28;20037;-81
2023/07/05 03:23:30;;;;;;;2.10;0.75;;;15.70;99.90;;;;;;5001388;28;20040;-81
2023/07/05 03:26:05;;;;;;;2.22;0.60;;;15.60;99.90;;;;;;5008506;28;20117;-81
2023/07/05 03:28:32;;;;;;;2.60;0.60;;;15.50;99.90;;;;;;5026402;28;20028;-81
2023/07/05 03:31:13;;;;;;;1.50;0.60;;;15.30;99.90;;;;;;5010764;28;20528;-81
2023/07/05 03:33:39;;;;;;;3.42;0.70;;;15.30;99.90;;;;;;5025543;28;20030;-81
2023/07/05 03:36:13;;;;;;;2.85;1.02;;;15.00;99.90;;;;;;5017459;28;20038;-81
2023/07/05 03:38:39;;;;;;;1.50;0.70;;;14.90;99.90;;;;;;5017972;28;20029;-81
2023/07/05 03:41:17;;;;;;;1.90;0.70;;;14.80;99.90;;;;;;5023178;28;20567;-81
2023/07/05 03:43:46;;;;;;;2.42;1.00;;;14.70;99.90;;;;;;5017143;28;20025;-81
2023/07/05 03:46:13;;;;;;;2.47;0.70;;;14.60;99.90;;;;;;5020002;28;20136;-81
2023/07/05 03:48:41;;;;;;;3.45;1.20;;;14.40;99.90;;;;;;5019908;28;20092;-81
2023/07/05 03:51:09;;;;;;;2.60;0.60;;;14.40;99.90;;;;;;5022984;28;20648;-82
2023/07/05 03:53:35;;;;;;;1.58;0.68;;;14.40;99.90;;;;;;5026334;28;20095;-80
2023/07/05 03:56:05;;;;;;;2.95;0.80;;;14.30;99.90;;;;;;5037728;28;20474;-81
2023/07/05 03:58:31;;;;;;;2.00;0.75;;;14.30;99.90;;;;;;5008857;28;20034;-82
2023/07/05 04:01:12;;;;;;;1.45;0.57;;;14.20;99.90;;;;;;5024293;28;20033;-81
2023/07/05 04:03:38;;;;;;;3.47;0.85;;;14.30;99.90;;;;;;5007573;28;20103;-80
2023/07/05 04:06:05;;;;;;;2.05;0.70;;;14.20;99.90;;;;;;5017116;28;20491;-81
2023/07/05 04:08:31;;;;;;;3.50;0.95;;;14.20;99.90;;;;;;5013526;28;20110;-80
2023/07/05 04:10:57;;;;;;;2.08;0.60;;;14.10;99.90;;;;;;5019614;28;20100;-80
2023/07/05 04:13:22;;;;;;;1.95;0.75;;;14.10;99.90;;;;;;5036826;28;20037;-81
2023/07/05 04:16:20;;;;;;;1.75;0.70;;;14.10;99.90;;;;;;5021150;28;20097;-80
2023/07/05 04:18:49;;;;;;;2.08;0.73;;;14.10;99.90;;;;;;5000948;28;20088;-80
2023/07/05 04:21:15;;;;;;;1.60;0.60;;;14.10;99.90;;;;;;5021392;28;20033;-80
2023/07/05 04:23:41;;;;;;;3.15;0.63;;;14.10;99.90;;;;;;5024692;28;20669;-80
2023/07/05 04:26:12;;;;;;;2.33;0.63;;;14.00;99.90;;;;;;5001386;28;20121;-79
2023/07/05 04:28:40;;;;;;;1.80;0.60;;;14.00;99.90;;;;;;5016579;28;20021;-80
2023/07/05 04:31:10;;;;;;;2.78;0.70;;;14.00;99.90;;;;;;5018788;28;20029;-79
2023/07/05 04:33:36;;;;;;;1.80;0.80;;;13.90;99.90;;;;;;5018169;28;20144;-79
2023/07/05 04:36:02;;;;;;;3.05;0.90;;;14.00;99.90;;;;;;5020811;28;20045;-79
2023/07/05 04:38:29;;;;;;;2.22;0.80;;;14.00;99.90;;;;;;5025382;28;20867;-80
2023/07/05 04:40:56;;;;;;;4.30;0.80;;;14.10;99.90;;;;;;5025246;28;20040;-79
2023/07/05 04:43:22;;;;;;;2.70;1.00;;;14.20;99.90;;;;;;5024170;28;20378;-79
2023/07/05 04:45:52;;;;;;;2.72;0.95;;;14.30;99.90;;;;;;5018357;28;20026;-78
2023/07/05 04:48:18;;;;;;;3.17;1.08;;;14.40;99.90;;;;;;5020764;28;20092;-81
2023/07/05 04:50:47;;;;;;;3.38;1.17;;;14.50;99.90;;;;;;5026371;28;20116;-79
2023/07/05 04:53:13;;;;;;;2.33;1.00;;;14.60;99.90;;;;;;5017898;28;20113;-80
2023/07/05 04:55:47;;;;;;;3.88;1.25;;;14.70;99.90;;;;;;5022073;28;20122;-81
2023/07/05 04:58:15;;;;;;;4.38;1.15;;;14.80;99.90;;;;;;5018573;28;20101;-79
2023/07/05 05:00:46;;;;;;;3.33;1.17;;;14.80;99.90;;;;;;5026254;28;20032;-81
2023/07/05 05:03:13;;;;;;;2.80;0.90;;;14.80;99.90;;;;;;5012587;28;20041;-80
2023/07/05 05:05:41;;;;;;;3.88;1.30;;;15.00;99.90;;;;;;5014222;28;20490;-81
2023/07/05 05:08:07;;;;;;;3.65;1.00;;;15.10;99.90;;;;;;5014912;28;20108;-80
2023/07/05 05:10:35;;;;;;;2.38;1.00;;;15.10;99.90;;;;;;5018913;28;20049;-80
2023/07/05 05:13:01;;;;;;;4.20;0.68;;;15.10;99.90;;;;;;5016192;28;20033;-80
2023/07/05 05:15:26;;;;;;;1.92;0.80;;;15.10;99.90;;;;;;5007797;28;20026;-81
2023/07/05 05:17:52;;;;;;;2.22;0.80;;;15.40;99.90;;;;;;5020182;28;20478;-81
2023/07/05 05:20:18;;;;;;;4.50;0.82;;;15.50;99.90;;;;;;5020638;28;20026;-80
2023/07/05 05:22:43;;;;;;;4.32;1.55;;;15.10;99.90;;;;;;5022620;28;20470;-79
2023/07/05 05:25:09;;;;;;;5.03;1.10;;;15.10;99.90;;;;;;5014943;28;20109;-81
2023/07/05 05:27:35;;;;;;;3.97;0.82;;;15.00;99.90;;;;;;5015314;28;20036;-80
2023/07/05 05:30:00;;;;;;;3.10;1.13;;;15.00;99.90;;;;;;5017690;28;20032;-81
2023/07/05 05:32:27;;;;;;;3.00;0.77;;;15.10;99.90;;;;;;5010980;28;20029;-79
2023/07/05 05:34:54;;;;;;;2.78;0.80;;;15.40;99.90;;;;;;5013722;28;20437;-81
2023/07/05 05:37:20;;;;;;;2.88;1.00;;;15.50;99.90;;;;;;5022414;28;20026;-80
2023/07/05 05:39:45;;;;;;;2.30;1.17;;;15.50;99.90;;;;;;5020738;28;20025;-79
2023/07/05 05:42:11;;;;;;;3.47;0.90;;;15.30;99.90;;;;;;4971214;28;20457;-81
2023/07/05 05:44:37;;;;;;;2.75;0.98;;;15.40;99.90;;;;;;4994171;28;20026;-80
2023/07/05 05:47:03;;;;;;;2.72;0.82;;;15.10;99.90;;;;;;5018824;28;20038;-80
2023/07/05 05:49:28;;;;;;;4.07;1.10;;;15.20;99.90;;;;;;5006286;28;20037;-79
2023/07/05 05:51:54;;;;;;;3.38;1.15;;;15.10;99.90;;;;;;4997777;28;20038;-79
2023/07/05 05:54:20;;;;;;;5.75;1.58;;;15.00;99.90;;;;;;4992027;28;20748;-80
2023/07/05 05:56:46;;;;;;;3.85;1.10;;;15.10;99.90;;;;;;5016031;28;20121;-80
2023/07/05 05:59:11;;;;;;;2.92;0.80;;;15.10;99.90;;;;;;5015941;28;20037;-78
2023/07/05 06:01:37;;;;;;;2.63;0.90;;;15.50;99.90;;;;;;5014443;28;20526;-80
2023/07/05 06:04:03;;;;;;;3.70;0.90;;;15.30;99.90;;;;;;4994450;28;20252;-79
2023/07/05 06:06:28;;;;;;;3.60;1.13;;;15.30;99.90;;;;;;4990250;28;20065;-79
2023/07/05 06:08:54;;;;;;;3.58;1.15;;;15.40;99.90;;;;;;5014941;28;20561;-80
2023/07/05 06:11:20;;;;;;;3.05;1.00;;;15.30;99.90;;;;;;5013248;28;20852;-80
2023/07/05 06:13:46;;;;;;;2.22;0.80;;;15.20;99.90;;;;;;5011979;28;20357;-81
2023/07/05 06:16:11;;;;;;;2.97;1.13;;;15.20;99.90;;;;;;5013988;28;20041;-81
2023/07/05 06:18:38;;;;;;;4.05;1.05;;;15.10;99.90;;;;;;4997186;28;20033;-79
2023/07/05 06:21:04;;;;;;;3.75;1.00;;;15.10;99.90;;;;;;5012468;28;20033;-80
2023/07/05 06:23:30;;;;;;;3.22;0.80;;;15.10;99.90;;;;;;5010434;28;20115;-80
2023/07/05 06:25:55;;;;;;;2.67;0.82;;;14.90;99.90;;;;;;5012409;28;20534;-81
2023/07/05 06:28:21;;;;;;;2.97;0.90;;;14.50;99.90;;;;;;4997952;28;20504;-80
2023/07/05 06:30:47;;;;;;;3.83;0.73;;;14.40;99.90;;;;;;5013490;28;20025;-80
2023/07/05 06:33:14;;;;;;;3.20;0.75;;;14.40;99.90;;;;;;5005340;28;20030;-80
2023/07/05 06:35:40;;;;;;;2.97;0.77;;;14.40;99.90;;;;;;4996611;28;20560;-80
2023/07/05 06:38:06;;;;;;;3.22;0.60;;;14.40;99.90;;;;;;5003869;28;20029;-81
2023/07/05 06:40:32;;;;;;;2.45;1.00;;;14.30;99.90;;;;;;5005283;28;20037;-80
2023/07/05 06:42:58;;;;;;;4.78;0.70;;;14.30;99.90;;;;;;5017875;28;20081;-81
2023/07/05 06:45:29;;;;;;;2.50;0.70;;;14.40;99.90;;;;;;4998676;28;20478;-81
2023/07/05 06:47:54;;;;;;;2.40;0.88;;;14.30;99.90;;;;;;5014459;28;20055;-79
2023/07/05 06:50:20;;;;;;;3.38;0.90;;;14.20;99.90;;;;;;5014189;28;20026;-80
2023/07/05 06:52:46;;;;;;;3.42;0.73;;;14.20;99.90;;;;;;5009998;28;20133;-80
2023/07/05 06:55:11;;;;;;;2.63;0.70;;;14.30;99.90;;;;;;4989824;28;20746;-81
2023/07/05 06:57:37;;;;;;;1.80;0.63;;;14.30;99.90;;;;;;4994310;28;20038;-80
2023/07/05 07:00:07;;;;;;;3.10;0.93;;;14.30;99.90;;;;;;4989943;28;20171;-80
2023/07/05 07:02:33;;;;;;;2.58;0.70;;;14.20;99.90;;;;;;4992113;28;20103;-80
2023/07/05 07:04:58;;;;;;;2.30;0.68;;;14.30;99.90;;;;;;5009305;28;20037;-80
2023/07/05 07:07:24;;;;;;;2.17;0.85;;;14.50;99.90;;;;;;4991816;28;21250;-81
2023/07/05 07:09:50;;;;;;;2.65;0.60;;;14.40;99.90;;;;;;5009533;28;20049;-80
2023/07/05 07:12:16;;;;;;;2.00;0.55;;;14.40;99.90;;;;;;4991408;28;20075;-80
2023/07/05 07:14:42;;;;;;;3.42;0.70;;;14.40;99.90;;;;;;5000821;28;20040;-79
2023/07/05 07:17:07;;;;;;;2.53;0.68;;;14.30;99.90;;;;;;5017145;28;20044;-80
2023/07/05 07:19:33;;;;;;;4.13;0.70;;;14.30;99.90;;;;;;4999993;28;20038;-81
2023/07/05 07:21:59;;;;;;;4.25;0.60;;;14.20;99.90;;;;;;4991846;28;20033;-80
2023/07/05 07:24:24;;;;;;;2.25;0.50;;;14.10;99.90;;;;;;5007542;28;20038;-81
2023/07/05 07:26:51;;;;;;;4.18;0.63;;;14.10;99.90;;;;;;5001529;28;20107;-80
2023/07/05 07:29:17;;;;;;;3.55;0.80;;;14.10;99.90;;;;;;4998023;28;20034;-81
2023/07/05 07:31:42;;;;;;;2.03;0.50;;;13.80;99.90;;;;;;4990734;28;20037;-81
2023/07/05 07:34:11;;;;;;;3.45;0.60;;;13.80;99.90;;;;;;5000933;28;20026;-82
2023/07/05 07:36:37;;;;;;;4.05;0.70;;;13.80;99.90;;;;;;5009950;28;20038;-80
2023/07/05 07:39:03;;;;;;;3.78;0.60;;;13.60;99.90;;;;;;5009667;28;20026;-80
2023/07/05 07:41:32;;;;;;;5.03;0.85;;;13.30;99.90;;;;;;4973486;28;20103;-80
2023/07/05 07:44:01;;;;;;;2.67;0.50;;;13.00;99.90;;;;;;4989815;28;20029;-80
2023/07/05 07:46:29;;;;;;;1.92;0.50;;;12.90;99.90;;;;;;5001235;28;20049;-81
2023/07/05 07:48:57;;;;;;;5.10;0.60;;;12.80;99.90;;;;;;5017171;28;20033;-83
2023/07/05 07:51:29;;;;;;;3.38;0.80;;;12.80;99.90;;;;;;4993780;28;20084;-80
2023/07/05 07:53:55;;;;;;;2.33;0.50;;;12.90;99.90;;;;;;5000444;28;20695;-82
2023/07/05 07:56:23;;;;;;;1.73;0.50;;;13.20;99.90;;;;;;4994365;28;20099;-82
2023/07/05 07:58:52;;;;;;;2.60;0.40;;;13.50;99.90;;;;;;5004039;28;20541;-82
2023/07/05 08:01:28;;;;;;;3.20;0.65;;;13.60;99.90;;;;;;4999426;28;20492;-82
2023/07/05 08:03:56;;;;;;;3.92;0.60;;;13.50;99.90;;;;;;5008596;28;20144;-81
2023/07/05 08:06:40;;;;;;;2.05;0.60;;;13.50;99.90;;;;;;5008358;28;20041;-81
2023/07/05 08:09:09;;;;;;;5.05;0.65;;;13.60;99.90;;;;;;5007999;28;20715;-80
2023/07/05 08:11:36;;;;;;;4.10;0.60;;;13.80;99.90;;;;;;5008395;28;20038;-81
2023/07/05 08:14:02;;;;;;;5.70;0.98;;;13.80;99.90;;;;;;4999619;28;20045;-81
2023/07/05 08:16:27;;;;;;;5.43;0.82;;;13.90;99.90;;;;;;5007768;28;20102;-81
2023/07/05 08:18:53;;;;;;;2.35;0.70;;;13.90;99.90;;;;;;4992188;28;20081;-80
2023/07/05 08:21:19;;;;;;;3.33;0.85;;;13.90;99.90;;;;;;4989230;28;20033;-81
2023/07/05 08:23:45;;;;;;;2.63;0.50;;;13.90;99.90;;;;;;4990879;28;20355;-79
2023/07/05 08:26:14;;;;;;;3.08;0.60;;;13.80;99.90;;;;;;4999225;28;20630;-80
2023/07/05 08:28:40;;;;;;;4.53;0.85;;;13.90;99.90;;;;;;5000118;28;20513;-81
2023/07/05 08:31:07;;;;;;;3.53;0.75;;;14.00;99.90;;;;;;5024538;28;20041;-81
2023/07/05 08:33:34;;;;;;;5.35;0.70;;;14.10;99.90;;;;;;4999850;28;20036;-81
2023/07/05 08:36:33;;;;;;;5.47;0.70;;;14.00;99.90;;;;;;4992602;28;20084;-80
2023/07/05 08:39:03;;;;;;;1.98;0.50;;;14.00;99.90;;;;;;4986128;28;20052;-80
2023/07/05 08:41:47;;;;;;;4.97;0.80;;;14.50;99.90;;;;;;4981278;28;20991;-80
2023/07/05 08:44:16;;;;;;;4.90;0.70;;;14.40;99.90;;;;;;5007459;28;20374;-80
2023/07/05 08:46:46;;;;;;;3.60;0.98;;;14.40;99.90;;;;;;4999420;28;20029;-80
2023/07/05 08:49:19;;;;;;;5.35;0.90;;;14.50;99.90;;;;;;5008548;28;20033;-80
2023/07/05 08:51:45;;;;;;;1.38;0.60;;;14.60;99.90;;;;;;4988272;28;20127;-80
2023/07/05 08:54:13;;;;;;;3.13;1.08;;;14.90;99.90;;;;;;5006262;28;20041;-79
2023/07/05 08:56:49;;;;;;;3.35;0.70;;;14.60;99.90;;;;;;5000743;28;20509;-79
2023/07/05 08:59:29;;;;;;;3.33;0.73;;;14.40;99.90;;;;;;5007168;28;20037;-80
2023/07/05 09:01:56;;;;;;;3.97;1.23;;;14.50;99.90;;;;;;4999597;28;20092;-81
2023/07/05 09:04:26;;;;;;;3.22;1.00;;;15.10;99.90;;;;;;4990195;28;20121;-80
2023/07/05 09:07:17;;;;;;;2.20;0.70;;;15.50;99.90;;;;;;5008010;28;20052;-79
2023/07/05 09:10:08;;;;;;;3.10;1.45;;;15.90;99.90;;;;;;4993933;28;20040;-80
2023/07/05 09:12:48;;;;;;;4.65;0.88;;;15.90;99.90;;;;;;4986692;28;20044;-80
2023/07/05 09:15:24;;;;;;;3.72;1.40;;;16.00;99.90;;;;;;4988666;28;20034;-83
2023/07/05 09:18:04;;;;;;;5.05;1.90;;;16.60;99.90;;;;;;4998711;28;20173;-79
2023/07/05 09:20:41;;;;;;;3.80;1.10;;;17.10;99.90;;;;;;5011857;28;20034;-80
2023/07/05 09:23:18;;;;;;;4.38;0.70;;;17.40;99.90;;;;;;4989670;28;20037;-80
2023/07/05 09:25:47;;;;;;;2.22;0.80;;;17.70;99.90;;;;;;5010591;28;20063;-79
2023/07/05 09:28:23;;;;;;;4.60;0.98;;;17.60;99.90;;;;;;4990686;28;20111;-81
2023/07/05 09:30:49;;;;;;;5.38;0.80;;;17.70;99.90;;;;;;4995945;28;20536;-79
2023/07/05 09:33:27;;;;;;;4.90;0.85;;;17.70;99.90;;;;;;4995374;28;20041;-80
2023/07/05 09:35:54;;;;;;;6.22;1.00;;;17.90;99.90;;;;;;5003575;28;20175;-80
2023/07/05 09:38:22;;;;;;;4.53;0.70;;;17.80;99.90;;;;;;4994769;28;20706;-81
2023/07/05 09:40:59;;;;;;;6.25;1.13;;;18.10;99.90;;;;;;4995222;28;20651;-80
2023/07/05 09:43:33;;;;;;;4.50;0.70;;;18.10;99.90;;;;;;4991078;28;20474;-79
2023/07/05 09:46:26;;;;;;;6.40;0.88;;;18.50;99.90;;;;;;5011411;28;20033;-80
2023/07/05 09:48:54;;;;;;;3.65;0.90;;;17.80;99.90;;;;;;5011402;28;20038;-80
2023/07/05 09:51:21;;;;;;;5.10;0.75;;;17.80;99.90;;;;;;5000893;28;20037;-79
2023/07/05 09:54:00;;;;;;;3.58;0.70;;;17.60;99.90;;;;;;5001247;28;20645;-80
2023/07/05 09:56:29;;;;;;;5.25;0.82;;;17.40;99.90;;;;;;4992995;28;20079;-79
2023/07/05 09:59:18;;;;;;;2.10;0.70;;;17.90;99.90;;;;;;5010660;28;20434;-80
2023/07/05 10:01:48;;;;;;;6.95;0.75;;;17.30;99.90;;;;;;4995059;28;20054;-80
2023/07/05 10:04:15;;;;;;;6.65;0.73;;;16.70;99.90;;;;;;4992192;28;20041;-81
2023/07/05 10:06:45;;;;;;;2.65;0.50;;;16.50;99.90;;;;;;4991041;28;20041;-80
2023/07/05 10:09:19;;;;;;;4.57;0.60;;;16.30;99.90;;;;;;4991680;28;20034;-79
2023/07/05 10:11:53;;;;;;;3.67;0.50;;;16.20;99.90;;;;;;4991561;28;20502;-80
2023/07/05 10:14:27;;;;;;;5.15;0.82;;;16.20;99.90;;;;;;4992038;28;20574;-80
2023/07/05 10:16:56;;;;;;;3.53;0.50;;;16.10;99.90;;;;;;4994056;28;20053;-78
2023/07/05 10:19:32;;;;;;;5.90;0.60;;;16.20;99.90;;;;;;4991780;28;20038;-78
2023/07/05 10:22:03;;;;;;;5.57;0.50;;;16.20;99.90;;;;;;4998071;28;20040;-80
2023/07/05 10:24:32;;;;;;;7.50;0.73;;;16.20;99.90;;;;;;5007537;28;20030;-80
2023/07/05 10:27:21;;;;;;;8.27;0.98;;;16.10;99.90;;;;;;4975446;28;20155;-77
2023/07/05 10:30:13;;;;;;;2.93;0.57;;;16.10;99.90;;;;;;4991365;28;20390;-81
2023/07/05 10:32:40;;;;;;;5.43;0.52;;;16.20;99.90;;;;;;4983645;28;20809;-79
2023/07/05 10:35:20;;;;;;;9.00;0.90;;;16.30;99.90;;;;;;4990275;28;20514;-79
2023/07/05 10:37:46;;;;;;;7.45;0.50;;;16.30;99.90;;;;;;4990478;28;20661;-79
2023/07/05 10:40:12;;;;;;;3.97;0.60;;;16.40;99.90;;;;;;4990331;28;20340;-80
2023/07/05 10:42:46;;;;;;;3.65;0.55;;;16.60;99.90;;;;;;4958821;28;20088;-80
2023/07/05 10:45:14;;;;;;;6.57;0.60;;;16.70;99.90;;;;;;4981444;28;20034;-80
2023/07/05 10:47:42;;;;;;;2.13;0.40;;;16.80;99.90;;;;;;4978570;28;20042;-79
2023/07/05 10:50:14;;;;;;;7.20;0.50;;;17.00;99.90;;;;;;4980134;28;20801;-79
2023/07/05 10:52:50;;;;;;;6.07;0.47;;;16.90;99.90;;;;;;4978725;28;20034;-81
2023/07/05 10:55:20;;;;;;;5.57;0.35;;;17.00;99.90;;;;;;4976383;28;20067;-81
2023/07/05 10:58:00;;;;;;;3.55;0.70;;;17.30;99.90;;;;;;4980210;28;20041;-81
2023/07/05 11:00:41;;;;;;;2.20;0.40;;;17.70;99.90;;;;;;4980412;28;20045;-81
2023/07/05 11:03:25;;;;;;;4.82;0.30;;;18.10;99.90;;;;;;4979610;28;20694;-79
2023/07/05 11:05:55;;;;;;;3.33;0.38;;;18.30;99.90;;;;;;4979171;28;20073;-81
2023/07/05 11:08:28;;;;;;;3.22;0.20;;;18.20;99.90;;;;;;4980291;28;21019;-81
2023/07/05 11:11:00;;;;;;;5.10;0.60;;;18.50;99.90;;;;;;4979680;28;20078;-80
2023/07/05 11:13:28;;;;;;;3.10;0.30;;;18.00;99.90;;;;;;4978826;28;20030;-79
2023/07/05 11:15:54;;;;;;;1.80;0.40;;;17.80;99.90;;;;;;4983896;28;20119;-81
2023/07/05 11:18:22;;;;;;;3.00;0.40;;;18.40;99.90;;;;;;4979434;28;20072;-81
2023/07/05 11:20:56;;;;;;;2.47;0.30;;;18.50;99.90;;;;;;4966418;28;20534;-80
2023/07/05 11:23:40;;;;;;;6.20;0.40;;;18.70;99.90;;;;;;4979782;28;20432;-81
2023/07/05 11:26:07;;;;;;;2.00;0.30;;;19.30;99.90;;;;;;4978380;28;20037;-80
2023/07/05 11:28:43;;;;;;;4.65;0.22;;;19.20;99.90;;;;;;4968161;28;20045;-82
2023/07/05 11:31:27;;;;;;;1.92;0.30;;;18.60;99.90;;;;;;4980220;28;20038;-81
2023/07/05 11:34:21;;;;;;;3.33;0.30;;;18.80;99.90;;;;;;4977559;28;20423;-82
2023/07/05 11:36:48;;;;;;;2.42;0.30;;;18.80;99.90;;;;;;4968611;28;20034;-80
2023/07/05 11:39:48;;;;;;;2.17;0.25;;;19.10;99.90;;;;;;4981301;28;20039;-80
2023/07/05 11:44:42;;;;;;;1.85;0.25;;;19.10;99.90;;;;;;4991063;28;20042;-82
2023/07/05 11:47:10;;;;;;;2.88;0.20;;;19.00;99.90;;;;;;4989877;28;20362;-81
2023/07/05 11:49:38;;;;;;;1.70;0.20;;;19.10;99.90;;;;;;4973643;28;20034;-84
2023/07/05 11:52:24;;;;;;;3.80;0.52;;;19.50;99.90;;;;;;5005799;28;20033;-82
2023/07/05 11:55:26;;;;;;;4.40;0.30;;;19.30;99.90;;;;;;4989454;28;20025;-82
2023/07/05 11:58:00;;;;;;;3.42;0.30;;;19.40;99.90;;;;;;4983809;28;20037;-83
2023/07/05 12:00:38;;;;;;;2.75;0.32;;;19.70;99.90;;;;;;4990090;28;20152;-83
2023/07/05 12:03:25;;;;;;;;;;;19.90;99.90;;;;;;4980383;28;20054;-81
2023/07/05 12:09:43;;;;;;;2.93;0.40;;;20.20;99.90;;;;;;4973958;28;20053;-82
2023/07/05 12:12:13;;;;;;;5.22;0.47;;;19.80;99.90;;;;;;4956530;28;20301;-82
2023/07/05 12:14:38;;;;;;;4.75;0.57;;;19.90;99.90;;;;;;4955875;28;20120;-81
2023/07/05 12:17:14;;;;;;;3.20;0.40;;;19.60;99.90;;;;;;4960699;28;20121;-82
2023/07/05 12:19:40;;;;;;;3.38;0.50;;;19.70;99.90;;;;;;4972939;28;20049;-82
2023/07/05 12:22:14;;;;;;;2.00;0.30;;;19.30;99.90;;;;;;4958915;28;20380;-84
2023/07/05 12:24:47;;;;;;;4.00;0.50;;;19.30;99.90;;;;;;4972259;28;20402;-82
2023/07/05 12:27:31;;;;;;;1.50;0.30;;;18.90;99.90;;;;;;4969627;28;20085;-80
2023/07/05 12:29:59;;;;;;;2.17;0.50;;;18.60;99.90;;;;;;4958046;28;20054;-82
2023/07/05 12:32:28;;;;;;;5.78;0.50;;;18.30;99.90;;;;;;4957813;28;20132;-82
2023/07/05 12:35:14;;;;;;;3.97;0.43;;;18.20;99.90;;;;;;4974425;28;20515;-81
2023/07/05 12:37:40;;;;;;;6.55;0.50;;;18.00;99.90;;;;;;4959509;28;20108;-81
2023/07/05 12:40:24;;;;;;;2.55;0.40;;;17.90;99.90;;;;;;4975456;28;20125;-81
2023/07/05 12:43:03;;;;;;;3.63;0.47;;;17.50;99.90;;;;;;4962622;28;20164;-80
2023/07/05 12:45:31;;;;;;;3.25;0.50;;;16.80;99.90;;;;;;4964671;28;20646;-81
2023/07/05 12:48:11;;;;;;;2.90;0.45;;;17.00;99.90;;;;;;4988808;28;20044;-81
2023/07/05 12:50:37;;;;;;;3.38;0.40;;;17.60;99.90;;;;;;4989258;28;20041;-81
2023/07/05 12:53:12;;;;;;;4.47;0.50;;;17.80;99.90;;;;;;4988821;28;20042;-82
2023/07/05 12:55:39;;;;;;;3.30;0.70;;;17.70;99.90;;;;;;4973441;28;20040;-81
2023/07/05 12:58:08;;;;;;;3.92;0.50;;;16.60;99.90;;;;;;4973218;28;20096;-82
2023/07/05 13:00:37;;;;;;;2.90;0.68;;;16.30;99.90;;;;;;4992238;28;20291;-82
2023/07/05 13:03:04;;;;;;;3.97;0.50;;;15.80;99.90;;;;;;4981173;28;20141;-82
2023/07/05 13:05:30;;;;;;;2.53;0.50;;;15.90;99.90;;;;;;4991189;28;20030;-81
2023/07/05 13:08:00;;;;;;;4.07;0.50;;;15.70;99.90;;;;;;4988955;28;20045;-81
2023/07/05 13:10:26;;;;;;;2.10;0.50;;;15.70;99.90;;;;;;4990722;28;20092;-81